sensor_id;sensor_type;location;lat;lon;timestamp;P1;durP1;ratioP1;P2;durP2;ratioP2
69822;SDS011;57119;52.516;13.508;2022-12-18T00:00:41;36.97;;;10.67;;
69822;SDS011;57119;52.516;13.508;2022-12-18T00:03:08;34.10;;;10.68;;
69822;SDS011;57119;52.516;13.508;2022-12-18T00:05:33;34.90;;;10.77;;
69822;SDS011;57119;52.516;13.508;2022-12-18T00:07:58;31.80;;;9.55;;
69822;SDS011;57119;52.516;13.508;2022-12-18T00:10:24;34.38;;;10.95;;
69822;SDS011;57119;52.516;13.508;2022-12-18T00:12:49;34.93;;;10.10;;
69822;SDS011;57119;52.516;13.508;2022-12-18T00:15:15;38.20;;;11.10;;
69822;SDS011;57119;52.516;13.508;2022-12-18T00:17:40;38.07;;;10.73;;
69822;SDS011;57119;52.516;13.508;2022-12-18T00:20:06;46.33;;;11.55;;
69822;SDS011;57119;52.516;13.508;2022-12-18T00:22:31;31.42;;;10.43;;
69822;SDS011;57119;52.516;13.508;2022-12-18T00:24:57;38.17;;;12.20;;
69822;SDS011;57119;52.516;13.508;2022-12-18T00:27:22;43.38;;;13.20;;
69822;SDS011;57119;52.516;13.508;2022-12-18T00:29:48;48.70;;;11.50;;
69822;SDS011;57119;52.516;13.508;2022-12-18T00:32:14;42.87;;;12.37;;
69822;SDS011;57119;52.516;13.508;2022-12-18T00:34:39;41.22;;;12.27;;
69822;SDS011;57119;52.516;13.508;2022-12-18T00:37:04;37.40;;;10.20;;
69822;SDS011;57119;52.516;13.508;2022-12-18T00:39:30;37.90;;;10.53;;
69822;SDS011;57119;52.516;13.508;2022-12-18T00:41:55;40.10;;;11.20;;
69822;SDS011;57119;52.516;13.508;2022-12-18T00:44:39;42.50;;;12.68;;
69822;SDS011;57119;52.516;13.508;2022-12-18T00:47:04;45.63;;;11.77;;
69822;SDS011;57119;52.516;13.508;2022-12-18T00:49:30;47.13;;;11.87;;
69822;SDS011;57119;52.516;13.508;2022-12-18T00:51:55;41.40;;;12.25;;
69822;SDS011;57119;52.516;13.508;2022-12-18T00:54:21;38.63;;;10.90;;
69822;SDS011;57119;52.516;13.508;2022-12-18T00:56:46;38.20;;;11.43;;
69822;SDS011;57119;52.516;13.508;2022-12-18T00:59:11;39.23;;;12.03;;
69822;SDS011;57119;52.516;13.508;2022-12-18T01:01:37;50.37;;;13.87;;
69822;SDS011;57119;52.516;13.508;2022-12-18T01:04:02;41.67;;;12.47;;
69822;SDS011;57119;52.516;13.508;2022-12-18T01:06:28;40.13;;;12.38;;
69822;SDS011;57119;52.516;13.508;2022-12-18T01:08:54;44.50;;;12.55;;
69822;SDS011;57119;52.516;13.508;2022-12-18T01:11:20;36.50;;;10.87;;
69822;SDS011;57119;52.516;13.508;2022-12-18T01:13:46;40.95;;;12.05;;
69822;SDS011;57119;52.516;13.508;2022-12-18T01:16:13;45.97;;;11.63;;
69822;SDS011;57119;52.516;13.508;2022-12-18T01:18:39;40.17;;;10.80;;
69822;SDS011;57119;52.516;13.508;2022-12-18T01:21:05;44.17;;;11.93;;
69822;SDS011;57119;52.516;13.508;2022-12-18T01:23:35;50.88;;;13.23;;
69822;SDS011;57119;52.516;13.508;2022-12-18T01:26:07;48.97;;;13.57;;
69822;SDS011;57119;52.516;13.508;2022-12-18T01:28:34;39.42;;;12.60;;
69822;SDS011;57119;52.516;13.508;2022-12-18T01:31:13;45.80;;;13.48;;
69822;SDS011;57119;52.516;13.508;2022-12-18T01:33:41;52.27;;;14.53;;
69822;SDS011;57119;52.516;13.508;2022-12-18T01:36:06;50.17;;;12.68;;
69822;SDS011;57119;52.516;13.508;2022-12-18T01:38:32;46.53;;;13.57;;
69822;SDS011;57119;52.516;13.508;2022-12-18T01:40:58;51.33;;;12.57;;
69822;SDS011;57119;52.516;13.508;2022-12-18T01:46:19;50.85;;;15.00;;
69822;SDS011;57119;52.516;13.508;2022-12-18T01:48:50;53.50;;;14.98;;
69822;SDS011;57119;52.516;13.508;2022-12-18T01:51:18;51.70;;;14.85;;
69822;SDS011;57119;52.516;13.508;2022-12-18T01:53:44;54.63;;;15.87;;
69822;SDS011;57119;52.516;13.508;2022-12-18T01:56:15;57.65;;;17.13;;
69822;SDS011;57119;52.516;13.508;2022-12-18T02:01:10;57.90;;;15.30;;
69822;SDS011;57119;52.516;13.508;2022-12-18T02:03:36;55.28;;;15.73;;
69822;SDS011;57119;52.516;13.508;2022-12-18T02:09:13;43.55;;;13.85;;
69822;SDS011;57119;52.516;13.508;2022-12-18T02:11:49;47.67;;;13.23;;
69822;SDS011;57119;52.516;13.508;2022-12-18T02:14:41;53.97;;;14.65;;
69822;SDS011;57119;52.516;13.508;2022-12-18T02:23:04;54.80;;;15.40;;
69822;SDS011;57119;52.516;13.508;2022-12-18T02:28:28;41.47;;;12.13;;
69822;SDS011;57119;52.516;13.508;2022-12-18T02:30:57;48.47;;;15.60;;
69822;SDS011;57119;52.516;13.508;2022-12-18T02:33:27;47.63;;;13.82;;
69822;SDS011;57119;52.516;13.508;2022-12-18T02:35:54;46.38;;;12.40;;
69822;SDS011;57119;52.516;13.508;2022-12-18T02:38:21;46.38;;;14.13;;
69822;SDS011;57119;52.516;13.508;2022-12-18T02:40:48;51.97;;;12.73;;
69822;SDS011;57119;52.516;13.508;2022-12-18T02:43:14;49.57;;;12.30;;
69822;SDS011;57119;52.516;13.508;2022-12-18T02:45:47;47.08;;;12.10;;
69822;SDS011;57119;52.516;13.508;2022-12-18T02:48:17;50.13;;;12.13;;
69822;SDS011;57119;52.516;13.508;2022-12-18T02:50:48;39.95;;;12.15;;
69822;SDS011;57119;52.516;13.508;2022-12-18T02:58:47;40.13;;;11.02;;
69822;SDS011;57119;52.516;13.508;2022-12-18T03:01:41;40.08;;;11.40;;
69822;SDS011;57119;52.516;13.508;2022-12-18T03:04:18;38.83;;;10.80;;
69822;SDS011;57119;52.516;13.508;2022-12-18T03:06:52;37.70;;;11.07;;
69822;SDS011;57119;52.516;13.508;2022-12-18T03:09:54;42.27;;;11.27;;
69822;SDS011;57119;52.516;13.508;2022-12-18T03:12:50;39.22;;;12.15;;
69822;SDS011;57119;52.516;13.508;2022-12-18T03:15:14;40.78;;;10.38;;
69822;SDS011;57119;52.516;13.508;2022-12-18T03:17:46;48.17;;;13.30;;
69822;SDS011;57119;52.516;13.508;2022-12-18T03:20:17;51.35;;;13.05;;
69822;SDS011;57119;52.516;13.508;2022-12-18T03:22:46;39.13;;;10.53;;
69822;SDS011;57119;52.516;13.508;2022-12-18T03:25:16;39.35;;;11.48;;
69822;SDS011;57119;52.516;13.508;2022-12-18T03:27:44;51.20;;;13.13;;
69822;SDS011;57119;52.516;13.508;2022-12-18T03:30:13;41.60;;;12.23;;
69822;SDS011;57119;52.516;13.508;2022-12-18T03:32:47;43.85;;;11.20;;
69822;SDS011;57119;52.516;13.508;2022-12-18T03:35:18;40.50;;;11.80;;
69822;SDS011;57119;52.516;13.508;2022-12-18T03:37:47;35.63;;;11.32;;
69822;SDS011;57119;52.516;13.508;2022-12-18T03:40:12;41.23;;;10.97;;
69822;SDS011;57119;52.516;13.508;2022-12-18T03:43:00;37.13;;;10.50;;
69822;SDS011;57119;52.516;13.508;2022-12-18T03:45:37;36.50;;;11.38;;
69822;SDS011;57119;52.516;13.508;2022-12-18T03:48:10;35.23;;;11.17;;
69822;SDS011;57119;52.516;13.508;2022-12-18T03:50:49;34.53;;;8.98;;
69822;SDS011;57119;52.516;13.508;2022-12-18T03:56:12;39.88;;;11.15;;
69822;SDS011;57119;52.516;13.508;2022-12-18T03:58:41;38.88;;;10.80;;
69822;SDS011;57119;52.516;13.508;2022-12-18T04:01:08;31.47;;;11.47;;
69822;SDS011;57119;52.516;13.508;2022-12-18T04:03:37;43.20;;;11.30;;
69822;SDS011;57119;52.516;13.508;2022-12-18T04:06:04;35.97;;;10.90;;
69822;SDS011;57119;52.516;13.508;2022-12-18T04:08:31;37.72;;;10.52;;
69822;SDS011;57119;52.516;13.508;2022-12-18T04:10:58;41.45;;;12.45;;
69822;SDS011;57119;52.516;13.508;2022-12-18T04:13:27;36.87;;;12.13;;
69822;SDS011;57119;52.516;13.508;2022-12-18T04:15:56;34.92;;;9.70;;
69822;SDS011;57119;52.516;13.508;2022-12-18T04:18:22;40.70;;;11.53;;
69822;SDS011;57119;52.516;13.508;2022-12-18T04:20:47;34.17;;;10.65;;
69822;SDS011;57119;52.516;13.508;2022-12-18T04:23:13;39.63;;;11.33;;
69822;SDS011;57119;52.516;13.508;2022-12-18T04:25:38;36.83;;;9.53;;
69822;SDS011;57119;52.516;13.508;2022-12-18T04:28:04;44.80;;;11.15;;
69822;SDS011;57119;52.516;13.508;2022-12-18T04:30:30;37.65;;;11.20;;
69822;SDS011;57119;52.516;13.508;2022-12-18T04:32:55;34.72;;;10.40;;
69822;SDS011;57119;52.516;13.508;2022-12-18T04:35:21;37.88;;;10.70;;
69822;SDS011;57119;52.516;13.508;2022-12-18T04:37:46;38.07;;;11.50;;
69822;SDS011;57119;52.516;13.508;2022-12-18T04:40:12;40.33;;;12.97;;
69822;SDS011;57119;52.516;13.508;2022-12-18T04:42:38;41.20;;;11.60;;
69822;SDS011;57119;52.516;13.508;2022-12-18T04:45:04;34.27;;;10.10;;
69822;SDS011;57119;52.516;13.508;2022-12-18T04:47:30;35.92;;;10.75;;
69822;SDS011;57119;52.516;13.508;2022-12-18T04:49:55;35.43;;;9.90;;
69822;SDS011;57119;52.516;13.508;2022-12-18T04:52:21;37.43;;;10.47;;
69822;SDS011;57119;52.516;13.508;2022-12-18T04:54:46;30.33;;;10.50;;
69822;SDS011;57119;52.516;13.508;2022-12-18T04:57:11;38.47;;;12.10;;
69822;SDS011;57119;52.516;13.508;2022-12-18T04:59:37;43.37;;;10.93;;
69822;SDS011;57119;52.516;13.508;2022-12-18T05:02:02;30.63;;;9.20;;
69822;SDS011;57119;52.516;13.508;2022-12-18T05:04:27;32.27;;;8.50;;
69822;SDS011;57119;52.516;13.508;2022-12-18T05:06:53;34.33;;;10.17;;
69822;SDS011;57119;52.516;13.508;2022-12-18T05:09:18;39.90;;;11.10;;
69822;SDS011;57119;52.516;13.508;2022-12-18T05:11:43;36.67;;;9.83;;
69822;SDS011;57119;52.516;13.508;2022-12-18T05:14:09;39.50;;;10.38;;
69822;SDS011;57119;52.516;13.508;2022-12-18T05:16:34;39.93;;;11.77;;
69822;SDS011;57119;52.516;13.508;2022-12-18T05:19:00;33.63;;;10.37;;
69822;SDS011;57119;52.516;13.508;2022-12-18T05:21:25;31.53;;;9.07;;
69822;SDS011;57119;52.516;13.508;2022-12-18T05:23:50;34.93;;;9.80;;
69822;SDS011;57119;52.516;13.508;2022-12-18T05:26:17;40.17;;;11.70;;
69822;SDS011;57119;52.516;13.508;2022-12-18T05:28:43;37.88;;;9.30;;
69822;SDS011;57119;52.516;13.508;2022-12-18T05:31:09;34.47;;;10.65;;
69822;SDS011;57119;52.516;13.508;2022-12-18T05:33:34;41.33;;;10.60;;
69822;SDS011;57119;52.516;13.508;2022-12-18T05:36:04;34.33;;;9.77;;
69822;SDS011;57119;52.516;13.508;2022-12-18T05:38:31;35.83;;;10.67;;
69822;SDS011;57119;52.516;13.508;2022-12-18T05:40:57;37.95;;;10.70;;
69822;SDS011;57119;52.516;13.508;2022-12-18T05:43:23;34.87;;;10.83;;
69822;SDS011;57119;52.516;13.508;2022-12-18T05:45:50;33.95;;;10.35;;
69822;SDS011;57119;52.516;13.508;2022-12-18T05:48:16;41.75;;;12.35;;
69822;SDS011;57119;52.516;13.508;2022-12-18T05:50:43;38.67;;;11.13;;
69822;SDS011;57119;52.516;13.508;2022-12-18T05:53:10;41.75;;;11.60;;
69822;SDS011;57119;52.516;13.508;2022-12-18T05:55:36;39.10;;;11.23;;
69822;SDS011;57119;52.516;13.508;2022-12-18T05:58:03;45.53;;;12.88;;
69822;SDS011;57119;52.516;13.508;2022-12-18T06:00:30;39.85;;;10.88;;
69822;SDS011;57119;52.516;13.508;2022-12-18T06:02:57;40.17;;;11.32;;
69822;SDS011;57119;52.516;13.508;2022-12-18T06:05:23;45.63;;;12.63;;
69822;SDS011;57119;52.516;13.508;2022-12-18T06:07:48;40.10;;;11.13;;
69822;SDS011;57119;52.516;13.508;2022-12-18T06:10:13;45.53;;;13.20;;
69822;SDS011;57119;52.516;13.508;2022-12-18T06:12:39;39.53;;;11.17;;
69822;SDS011;57119;52.516;13.508;2022-12-18T06:15:04;46.07;;;12.57;;
69822;SDS011;57119;52.516;13.508;2022-12-18T06:17:30;52.45;;;14.10;;
69822;SDS011;57119;52.516;13.508;2022-12-18T06:19:56;47.90;;;13.85;;
69822;SDS011;57119;52.516;13.508;2022-12-18T06:22:22;41.57;;;12.27;;
69822;SDS011;57119;52.516;13.508;2022-12-18T06:24:47;49.90;;;14.40;;
69822;SDS011;57119;52.516;13.508;2022-12-18T06:27:13;43.95;;;13.65;;
69822;SDS011;57119;52.516;13.508;2022-12-18T06:29:39;32.50;;;10.87;;
69822;SDS011;57119;52.516;13.508;2022-12-18T06:32:04;49.67;;;13.00;;
69822;SDS011;57119;52.516;13.508;2022-12-18T06:34:29;45.78;;;13.90;;
69822;SDS011;57119;52.516;13.508;2022-12-18T06:36:56;42.30;;;11.83;;
69822;SDS011;57119;52.516;13.508;2022-12-18T06:39:21;46.33;;;11.95;;
69822;SDS011;57119;52.516;13.508;2022-12-18T06:41:47;43.55;;;12.93;;
69822;SDS011;57119;52.516;13.508;2022-12-18T06:44:12;47.50;;;12.00;;
69822;SDS011;57119;52.516;13.508;2022-12-18T06:46:38;33.03;;;10.83;;
69822;SDS011;57119;52.516;13.508;2022-12-18T06:49:03;43.67;;;12.25;;
69822;SDS011;57119;52.516;13.508;2022-12-18T06:51:29;54.53;;;12.75;;
69822;SDS011;57119;52.516;13.508;2022-12-18T06:53:54;49.37;;;13.60;;
69822;SDS011;57119;52.516;13.508;2022-12-18T06:56:20;52.13;;;12.90;;
69822;SDS011;57119;52.516;13.508;2022-12-18T06:58:45;37.77;;;11.97;;
69822;SDS011;57119;52.516;13.508;2022-12-18T07:01:11;46.38;;;12.82;;
69822;SDS011;57119;52.516;13.508;2022-12-18T07:03:38;43.47;;;12.03;;
69822;SDS011;57119;52.516;13.508;2022-12-18T07:06:03;43.78;;;11.65;;
69822;SDS011;57119;52.516;13.508;2022-12-18T07:08:29;51.20;;;13.97;;
69822;SDS011;57119;52.516;13.508;2022-12-18T07:10:55;41.15;;;11.35;;
69822;SDS011;57119;52.516;13.508;2022-12-18T07:13:21;42.33;;;11.77;;
69822;SDS011;57119;52.516;13.508;2022-12-18T07:15:46;45.83;;;12.90;;
69822;SDS011;57119;52.516;13.508;2022-12-18T07:18:12;49.40;;;12.73;;
69822;SDS011;57119;52.516;13.508;2022-12-18T07:20:37;49.83;;;13.37;;
69822;SDS011;57119;52.516;13.508;2022-12-18T07:23:03;47.50;;;12.83;;
69822;SDS011;57119;52.516;13.508;2022-12-18T07:25:28;52.90;;;13.73;;
69822;SDS011;57119;52.516;13.508;2022-12-18T07:27:54;51.83;;;15.18;;
69822;SDS011;57119;52.516;13.508;2022-12-18T07:30:19;55.67;;;13.87;;
69822;SDS011;57119;52.516;13.508;2022-12-18T07:32:45;50.77;;;13.03;;
69822;SDS011;57119;52.516;13.508;2022-12-18T07:35:10;43.33;;;13.17;;
69822;SDS011;57119;52.516;13.508;2022-12-18T07:37:35;40.23;;;12.33;;
69822;SDS011;57119;52.516;13.508;2022-12-18T07:40:01;44.13;;;13.63;;
69822;SDS011;57119;52.516;13.508;2022-12-18T07:42:26;43.90;;;12.03;;
69822;SDS011;57119;52.516;13.508;2022-12-18T07:45:00;43.10;;;12.45;;
69822;SDS011;57119;52.516;13.508;2022-12-18T07:47:27;46.90;;;12.77;;
69822;SDS011;57119;52.516;13.508;2022-12-18T07:49:56;41.83;;;12.18;;
69822;SDS011;57119;52.516;13.508;2022-12-18T07:52:22;48.90;;;12.77;;
69822;SDS011;57119;52.516;13.508;2022-12-18T07:54:47;35.43;;;10.63;;
69822;SDS011;57119;52.516;13.508;2022-12-18T07:57:15;39.85;;;10.95;;
69822;SDS011;57119;52.516;13.508;2022-12-18T07:59:41;50.65;;;14.15;;
69822;SDS011;57119;52.516;13.508;2022-12-18T08:02:06;43.47;;;11.50;;
69822;SDS011;57119;52.516;13.508;2022-12-18T08:04:34;48.10;;;12.33;;
69822;SDS011;57119;52.516;13.508;2022-12-18T08:07:00;44.90;;;11.73;;
69822;SDS011;57119;52.516;13.508;2022-12-18T08:09:25;32.50;;;10.97;;
69822;SDS011;57119;52.516;13.508;2022-12-18T08:11:51;34.83;;;11.93;;
69822;SDS011;57119;52.516;13.508;2022-12-18T08:14:16;39.83;;;12.27;;
69822;SDS011;57119;52.516;13.508;2022-12-18T08:16:41;38.13;;;10.68;;
69822;SDS011;57119;52.516;13.508;2022-12-18T08:19:07;31.97;;;10.67;;
69822;SDS011;57119;52.516;13.508;2022-12-18T08:21:35;29.93;;;10.47;;
69822;SDS011;57119;52.516;13.508;2022-12-18T08:24:01;34.58;;;11.07;;
69822;SDS011;57119;52.516;13.508;2022-12-18T08:26:28;36.83;;;11.30;;
69822;SDS011;57119;52.516;13.508;2022-12-18T08:28:55;33.00;;;10.85;;
69822;SDS011;57119;52.516;13.508;2022-12-18T08:31:21;36.50;;;11.07;;
69822;SDS011;57119;52.516;13.508;2022-12-18T08:33:48;35.25;;;10.70;;
69822;SDS011;57119;52.516;13.508;2022-12-18T08:36:15;39.90;;;11.47;;
69822;SDS011;57119;52.516;13.508;2022-12-18T08:38:41;39.92;;;12.23;;
69822;SDS011;57119;52.516;13.508;2022-12-18T08:41:07;40.20;;;11.93;;
69822;SDS011;57119;52.516;13.508;2022-12-18T08:43:35;43.33;;;12.52;;
69822;SDS011;57119;52.516;13.508;2022-12-18T08:46:19;36.03;;;11.57;;
69822;SDS011;57119;52.516;13.508;2022-12-18T08:48:46;34.08;;;10.40;;
69822;SDS011;57119;52.516;13.508;2022-12-18T08:51:12;33.17;;;10.93;;
69822;SDS011;57119;52.516;13.508;2022-12-18T08:53:38;40.80;;;11.55;;
69822;SDS011;57119;52.516;13.508;2022-12-18T08:56:04;38.07;;;11.53;;
69822;SDS011;57119;52.516;13.508;2022-12-18T08:58:29;37.13;;;11.57;;
69822;SDS011;57119;52.516;13.508;2022-12-18T09:00:59;41.60;;;9.40;;
69822;SDS011;57119;52.516;13.508;2022-12-18T09:03:26;35.78;;;10.68;;
69822;SDS011;57119;52.516;13.508;2022-12-18T09:05:52;39.67;;;11.87;;
69822;SDS011;57119;52.516;13.508;2022-12-18T09:08:17;37.40;;;10.60;;
69822;SDS011;57119;52.516;13.508;2022-12-18T09:10:46;44.28;;;12.02;;
69822;SDS011;57119;52.516;13.508;2022-12-18T09:13:13;39.27;;;12.27;;
69822;SDS011;57119;52.516;13.508;2022-12-18T09:15:46;37.65;;;11.13;;
69822;SDS011;57119;52.516;13.508;2022-12-18T09:18:15;38.17;;;12.00;;
69822;SDS011;57119;52.516;13.508;2022-12-18T09:20:42;34.92;;;11.20;;
69822;SDS011;57119;52.516;13.508;2022-12-18T09:23:08;36.03;;;10.87;;
69822;SDS011;57119;52.516;13.508;2022-12-18T09:25:34;40.70;;;11.43;;
69822;SDS011;57119;52.516;13.508;2022-12-18T09:28:01;40.40;;;12.55;;
69822;SDS011;57119;52.516;13.508;2022-12-18T09:30:28;42.33;;;11.85;;
69822;SDS011;57119;52.516;13.508;2022-12-18T09:32:54;43.73;;;12.63;;
69822;SDS011;57119;52.516;13.508;2022-12-18T09:35:20;38.63;;;9.13;;
69822;SDS011;57119;52.516;13.508;2022-12-18T09:37:46;38.53;;;11.23;;
69822;SDS011;57119;52.516;13.508;2022-12-18T09:40:14;32.67;;;10.23;;
69822;SDS011;57119;52.516;13.508;2022-12-18T09:42:43;37.00;;;10.85;;
69822;SDS011;57119;52.516;13.508;2022-12-18T09:45:14;34.90;;;11.60;;
69822;SDS011;57119;52.516;13.508;2022-12-18T09:47:40;44.47;;;12.05;;
69822;SDS011;57119;52.516;13.508;2022-12-18T09:50:21;39.75;;;12.48;;
69822;SDS011;57119;52.516;13.508;2022-12-18T09:52:53;40.70;;;12.77;;
69822;SDS011;57119;52.516;13.508;2022-12-18T09:55:28;36.05;;;11.07;;
69822;SDS011;57119;52.516;13.508;2022-12-18T09:58:02;48.70;;;13.80;;
69822;SDS011;57119;52.516;13.508;2022-12-18T10:00:32;48.53;;;13.55;;
69822;SDS011;57119;52.516;13.508;2022-12-18T10:03:02;41.27;;;12.77;;
69822;SDS011;57119;52.516;13.508;2022-12-18T10:05:43;46.20;;;14.18;;
69822;SDS011;57119;52.516;13.508;2022-12-18T10:26:55;42.90;;;13.27;;
69822;SDS011;57119;52.516;13.508;2022-12-18T10:29:33;41.88;;;12.05;;
69822;SDS011;57119;52.516;13.508;2022-12-18T10:31:59;38.30;;;11.63;;
69822;SDS011;57119;52.516;13.508;2022-12-18T10:34:24;50.55;;;15.52;;
69822;SDS011;57119;52.516;13.508;2022-12-18T10:36:50;44.30;;;13.02;;
69822;SDS011;57119;52.516;13.508;2022-12-18T10:39:16;43.43;;;14.13;;
69822;SDS011;57119;52.516;13.508;2022-12-18T10:41:43;45.87;;;13.03;;
69822;SDS011;57119;52.516;13.508;2022-12-18T10:46:50;51.37;;;14.47;;
69822;SDS011;57119;52.516;13.508;2022-12-18T10:49:24;44.97;;;14.60;;
69822;SDS011;57119;52.516;13.508;2022-12-18T10:52:03;45.17;;;12.35;;
69822;SDS011;57119;52.516;13.508;2022-12-18T10:54:36;40.85;;;12.35;;
69822;SDS011;57119;52.516;13.508;2022-12-18T10:59:59;39.40;;;11.77;;
69822;SDS011;57119;52.516;13.508;2022-12-18T11:02:44;33.40;;;10.63;;
69822;SDS011;57119;52.516;13.508;2022-12-18T11:05:23;36.63;;;11.00;;
69822;SDS011;57119;52.516;13.508;2022-12-18T11:07:56;33.50;;;10.98;;
69822;SDS011;57119;52.516;13.508;2022-12-18T11:10:25;30.35;;;9.32;;
69822;SDS011;57119;52.516;13.508;2022-12-18T11:12:53;29.65;;;10.02;;
69822;SDS011;57119;52.516;13.508;2022-12-18T11:15:20;37.57;;;11.80;;
69822;SDS011;57119;52.516;13.508;2022-12-18T11:17:49;30.40;;;10.77;;
69822;SDS011;57119;52.516;13.508;2022-12-18T11:20:21;36.30;;;11.57;;
69822;SDS011;57119;52.516;13.508;2022-12-18T11:23:01;38.90;;;12.88;;
69822;SDS011;57119;52.516;13.508;2022-12-18T11:25:30;36.60;;;11.10;;
69822;SDS011;57119;52.516;13.508;2022-12-18T11:28:01;27.95;;;9.93;;
69822;SDS011;57119;52.516;13.508;2022-12-18T11:30:45;31.05;;;10.82;;
69822;SDS011;57119;52.516;13.508;2022-12-18T11:33:13;34.90;;;11.25;;
69822;SDS011;57119;52.516;13.508;2022-12-18T11:35:50;35.58;;;10.70;;
69822;SDS011;57119;52.516;13.508;2022-12-18T11:38:21;38.00;;;12.13;;
69822;SDS011;57119;52.516;13.508;2022-12-18T11:44:22;31.35;;;11.02;;
69822;SDS011;57119;52.516;13.508;2022-12-18T11:46:53;27.33;;;9.45;;
69822;SDS011;57119;52.516;13.508;2022-12-18T11:49:26;34.35;;;10.40;;
69822;SDS011;57119;52.516;13.508;2022-12-18T11:54:44;25.02;;;9.05;;
69822;SDS011;57119;52.516;13.508;2022-12-18T12:06:09;31.25;;;9.63;;
69822;SDS011;57119;52.516;13.508;2022-12-18T12:16:58;32.38;;;10.85;;
69822;SDS011;57119;52.516;13.508;2022-12-18T12:23:23;27.00;;;10.35;;
69822;SDS011;57119;52.516;13.508;2022-12-18T12:26:06;26.00;;;8.80;;
69822;SDS011;57119;52.516;13.508;2022-12-18T12:28:38;30.40;;;9.60;;
69822;SDS011;57119;52.516;13.508;2022-12-18T12:39:53;26.13;;;9.30;;
69822;SDS011;57119;52.516;13.508;2022-12-18T12:45:36;31.67;;;10.25;;
69822;SDS011;57119;52.516;13.508;2022-12-18T12:48:13;25.25;;;8.68;;
69822;SDS011;57119;52.516;13.508;2022-12-18T12:50:52;31.67;;;10.40;;
69822;SDS011;57119;52.516;13.508;2022-12-18T12:53:22;26.67;;;9.20;;
69822;SDS011;57119;52.516;13.508;2022-12-18T12:55:53;27.08;;;8.73;;
69822;SDS011;57119;52.516;13.508;2022-12-18T13:03:56;28.40;;;9.97;;
69822;SDS011;57119;52.516;13.508;2022-12-18T13:06:56;29.60;;;10.05;;
69822;SDS011;57119;52.516;13.508;2022-12-18T13:15:32;32.00;;;11.05;;
69822;SDS011;57119;52.516;13.508;2022-12-18T13:20:36;30.08;;;10.27;;
69822;SDS011;57119;52.516;13.508;2022-12-18T13:25:51;33.90;;;10.77;;
69822;SDS011;57119;52.516;13.508;2022-12-18T13:28:20;32.30;;;11.85;;
69822;SDS011;57119;52.516;13.508;2022-12-18T13:30:50;29.63;;;10.33;;
69822;SDS011;57119;52.516;13.508;2022-12-18T13:33:34;31.70;;;9.52;;
69822;SDS011;57119;52.516;13.508;2022-12-18T13:38:38;29.67;;;10.68;;
69822;SDS011;57119;52.516;13.508;2022-12-18T13:41:20;28.92;;;10.40;;
69822;SDS011;57119;52.516;13.508;2022-12-18T13:43:48;28.80;;;10.70;;
69822;SDS011;57119;52.516;13.508;2022-12-18T13:51:34;27.88;;;10.68;;
69822;SDS011;57119;52.516;13.508;2022-12-18T13:54:01;30.48;;;10.50;;
69822;SDS011;57119;52.516;13.508;2022-12-18T13:56:32;30.65;;;12.25;;
69822;SDS011;57119;52.516;13.508;2022-12-18T14:04:16;38.90;;;12.07;;
69822;SDS011;57119;52.516;13.508;2022-12-18T14:06:45;30.02;;;10.90;;
69822;SDS011;57119;52.516;13.508;2022-12-18T14:09:13;32.17;;;11.83;;
69822;SDS011;57119;52.516;13.508;2022-12-18T14:11:40;33.50;;;11.73;;
69822;SDS011;57119;52.516;13.508;2022-12-18T14:14:12;35.60;;;12.27;;
69822;SDS011;57119;52.516;13.508;2022-12-18T14:16:40;29.17;;;10.45;;
69822;SDS011;57119;52.516;13.508;2022-12-18T14:19:08;28.92;;;11.15;;
69822;SDS011;57119;52.516;13.508;2022-12-18T14:21:39;34.60;;;11.03;;
69822;SDS011;57119;52.516;13.508;2022-12-18T14:26:33;30.98;;;11.07;;
69822;SDS011;57119;52.516;13.508;2022-12-18T14:28:59;30.07;;;11.90;;
69822;SDS011;57119;52.516;13.508;2022-12-18T14:31:43;30.40;;;11.50;;
69822;SDS011;57119;52.516;13.508;2022-12-18T14:34:14;30.33;;;11.30;;
69822;SDS011;57119;52.516;13.508;2022-12-18T14:36:40;32.28;;;12.30;;
69822;SDS011;57119;52.516;13.508;2022-12-18T14:39:11;34.35;;;13.40;;
69822;SDS011;57119;52.516;13.508;2022-12-18T14:41:42;38.25;;;12.88;;
69822;SDS011;57119;52.516;13.508;2022-12-18T14:44:07;40.20;;;13.83;;
69822;SDS011;57119;52.516;13.508;2022-12-18T14:46:38;31.95;;;12.52;;
69822;SDS011;57119;52.516;13.508;2022-12-18T14:51:55;30.52;;;11.50;;
69822;SDS011;57119;52.516;13.508;2022-12-18T14:54:25;36.45;;;12.38;;
69822;SDS011;57119;52.516;13.508;2022-12-18T14:57:05;31.03;;;13.23;;
69822;SDS011;57119;52.516;13.508;2022-12-18T14:59:45;34.95;;;12.98;;
69822;SDS011;57119;52.516;13.508;2022-12-18T15:05:03;31.90;;;12.65;;
69822;SDS011;57119;52.516;13.508;2022-12-18T15:07:44;25.10;;;9.90;;
69822;SDS011;57119;52.516;13.508;2022-12-18T15:10:13;32.00;;;11.23;;
69822;SDS011;57119;52.516;13.508;2022-12-18T15:12:42;31.35;;;10.93;;
69822;SDS011;57119;52.516;13.508;2022-12-18T15:16:10;29.07;;;10.63;;
69822;SDS011;57119;52.516;13.508;2022-12-18T15:20:42;30.90;;;11.38;;
69822;SDS011;57119;52.516;13.508;2022-12-18T15:26:09;32.75;;;11.73;;
69822;SDS011;57119;52.516;13.508;2022-12-18T15:33:45;26.47;;;11.53;;
69822;SDS011;57119;52.516;13.508;2022-12-18T15:36:29;28.90;;;11.38;;
69822;SDS011;57119;52.516;13.508;2022-12-18T15:38:55;26.90;;;10.18;;
69822;SDS011;57119;52.516;13.508;2022-12-18T15:41:22;27.83;;;11.05;;
69822;SDS011;57119;52.516;13.508;2022-12-18T15:43:49;29.40;;;11.73;;
69822;SDS011;57119;52.516;13.508;2022-12-18T15:46:17;31.47;;;11.13;;
69822;SDS011;57119;52.516;13.508;2022-12-18T15:48:51;31.60;;;11.02;;
69822;SDS011;57119;52.516;13.508;2022-12-18T15:51:18;37.17;;;12.65;;
69822;SDS011;57119;52.516;13.508;2022-12-18T15:53:46;31.52;;;12.45;;
69822;SDS011;57119;52.516;13.508;2022-12-18T15:56:16;27.35;;;11.73;;
69822;SDS011;57119;52.516;13.508;2022-12-18T15:59:00;30.73;;;12.07;;
69822;SDS011;57119;52.516;13.508;2022-12-18T16:01:27;33.40;;;12.15;;
69822;SDS011;57119;52.516;13.508;2022-12-18T16:03:54;33.22;;;12.82;;
69822;SDS011;57119;52.516;13.508;2022-12-18T16:06:20;31.70;;;12.90;;
69822;SDS011;57119;52.516;13.508;2022-12-18T16:08:46;31.42;;;11.68;;
69822;SDS011;57119;52.516;13.508;2022-12-18T16:11:20;29.57;;;12.00;;
69822;SDS011;57119;52.516;13.508;2022-12-18T16:14:02;34.40;;;11.90;;
69822;SDS011;57119;52.516;13.508;2022-12-18T16:16:49;29.08;;;11.25;;
69822;SDS011;57119;52.516;13.508;2022-12-18T16:19:18;27.77;;;11.90;;
69822;SDS011;57119;52.516;13.508;2022-12-18T16:21:45;26.53;;;10.33;;
69822;SDS011;57119;52.516;13.508;2022-12-18T16:24:18;33.42;;;13.02;;
69822;SDS011;57119;52.516;13.508;2022-12-18T16:26:46;28.25;;;11.38;;
69822;SDS011;57119;52.516;13.508;2022-12-18T16:29:12;30.23;;;11.23;;
69822;SDS011;57119;52.516;13.508;2022-12-18T16:31:38;24.42;;;11.38;;
69822;SDS011;57119;52.516;13.508;2022-12-18T16:34:11;29.63;;;12.10;;
69822;SDS011;57119;52.516;13.508;2022-12-18T16:36:44;29.38;;;11.13;;
69822;SDS011;57119;52.516;13.508;2022-12-18T16:39:09;24.53;;;9.33;;